createdAt,value
2019-06-26T00:00:44.052Z,21.10
2019-06-26T00:03:11.691Z,21.10
2019-06-26T00:05:39.158Z,21.10
2019-06-26T00:08:06.526Z,21.10
2019-06-26T00:10:34.930Z,21.10
2019-06-26T00:13:02.238Z,21.00
2019-06-26T00:15:29.590Z,21.00
2019-06-26T00:17:56.910Z,21.10
2019-06-26T00:20:24.121Z,21.10
2019-06-26T00:22:51.443Z,21.00
2019-06-26T00:25:18.782Z,21.10
2019-06-26T00:27:45.990Z,21.10
2019-06-26T00:30:13.222Z,21.10
2019-06-26T00:32:41.725Z,21.10
2019-06-26T00:35:09.068Z,21.10
2019-06-26T00:37:36.414Z,21.00
2019-06-26T00:40:03.934Z,21.00
2019-06-26T00:42:31.240Z,21.10
2019-06-26T00:44:58.797Z,21.10
2019-06-26T00:47:26.001Z,21.10
2019-06-26T00:49:53.336Z,21.00
2019-06-26T00:52:20.657Z,21.00
2019-06-26T00:54:48.007Z,21.10
2019-06-26T00:57:15.563Z,21.10
2019-06-26T00:59:43.057Z,21.10
2019-06-26T01:02:10.505Z,21.00
2019-06-26T01:04:41.349Z,21.10
2019-06-26T01:07:08.659Z,21.00
2019-06-26T01:09:37.295Z,21.10
2019-06-26T01:12:05.028Z,21.10
2019-06-26T01:14:32.350Z,21.10
2019-06-26T01:16:59.758Z,21.10
2019-06-26T01:19:27.216Z,21.10
2019-06-26T01:21:54.447Z,21.00
2019-06-26T01:24:21.655Z,21.10
2019-06-26T01:26:48.979Z,21.00
2019-06-26T01:29:16.290Z,21.10
2019-06-26T01:31:44.716Z,21.10
2019-06-26T01:34:13.337Z,21.10
2019-06-26T01:36:40.681Z,21.00
2019-06-26T01:39:07.936Z,21.10
2019-06-26T01:41:35.517Z,21.10
2019-06-26T01:44:14.183Z,21.00
2019-06-26T01:46:33.170Z,21.00
2019-06-26T01:49:00.509Z,21.10
2019-06-26T01:51:27.856Z,21.10
2019-06-26T01:53:55.156Z,21.00
2019-06-26T01:56:22.397Z,21.10
2019-06-26T01:58:49.605Z,21.10
2019-06-26T02:01:16.848Z,21.10
2019-06-26T02:03:45.248Z,21.10
2019-06-26T02:06:12.630Z,21.10
2019-06-26T02:08:39.893Z,21.00
2019-06-26T02:11:07.434Z,21.10
2019-06-26T02:13:34.959Z,21.10
2019-06-26T02:16:02.517Z,21.10
2019-06-26T02:18:42.618Z,21.10
2019-06-26T02:21:09.953Z,21.10
2019-06-26T02:23:38.487Z,21.10
2019-06-26T02:26:06.028Z,21.10
2019-06-26T02:28:33.324Z,21.00
2019-06-26T02:31:00.668Z,21.10
2019-06-26T02:33:28.178Z,21.10
2019-06-26T02:35:55.390Z,21.10
2019-06-26T02:38:22.734Z,21.10
2019-06-26T02:40:50.410Z,21.10
2019-06-26T02:43:17.662Z,21.10
2019-06-26T02:45:44.987Z,21.00
2019-06-26T02:48:12.349Z,21.10
2019-06-26T02:50:39.810Z,21.10
2019-06-26T02:53:07.541Z,21.10
2019-06-26T02:55:35.182Z,21.10
2019-06-26T02:58:02.707Z,21.10
2019-06-26T03:00:30.915Z,21.10
2019-06-26T03:02:58.353Z,21.10
2019-06-26T03:05:25.757Z,21.00
2019-06-26T03:07:53.069Z,21.10
2019-06-26T03:10:20.417Z,21.10
2019-06-26T03:12:47.942Z,21.10
2019-06-26T03:15:15.310Z,21.10
2019-06-26T03:17:54.927Z,21.10
2019-06-26T03:20:11.966Z,21.10
2019-06-26T03:22:39.333Z,21.10
2019-06-26T03:25:06.843Z,21.10
2019-06-26T03:27:34.178Z,21.10
2019-06-26T03:30:01.602Z,21.10
2019-06-26T03:32:28.838Z,21.10
2019-06-26T03:34:56.162Z,21.10
2019-06-26T03:37:23.793Z,21.10
2019-06-26T03:39:51.345Z,21.10
2019-06-26T03:42:18.691Z,21.10
2019-06-26T03:44:46.094Z,21.10
2019-06-26T03:47:13.429Z,21.10
2019-06-26T03:49:40.658Z,21.10
2019-06-26T03:52:08.150Z,21.10
2019-06-26T03:54:35.458Z,21.10
2019-06-26T03:57:02.814Z,21.10
2019-06-26T03:59:30.334Z,21.10
2019-06-26T04:01:57.692Z,21.10
2019-06-26T04:04:25.305Z,21.10
2019-06-26T04:06:52.653Z,21.10
2019-06-26T04:09:19.997Z,21.10
2019-06-26T04:11:47.537Z,21.10
2019-06-26T04:14:15.087Z,21.10
2019-06-26T04:16:43.453Z,21.10
2019-06-26T04:19:11.032Z,21.10
2019-06-26T04:21:40.703Z,21.10
2019-06-26T04:24:08.052Z,21.10
2019-06-26T04:26:35.270Z,21.10
2019-06-26T04:29:03.851Z,21.10
2019-06-26T04:31:34.732Z,21.10
2019-06-26T04:34:03.534Z,21.10
2019-06-26T04:36:30.844Z,21.10
2019-06-26T04:38:59.893Z,21.10
2019-06-26T04:41:27.201Z,21.10
2019-06-26T04:43:56.531Z,21.10
2019-06-26T04:46:25.088Z,21.10
2019-06-26T04:48:53.373Z,21.10
2019-06-26T04:51:27.560Z,21.10
2019-06-26T04:53:56.576Z,21.10
2019-06-26T04:56:24.001Z,21.10
2019-06-26T04:58:51.588Z,21.10
2019-06-26T05:01:21.009Z,21.10
2019-06-26T05:03:49.042Z,21.10
2019-06-26T05:06:16.777Z,21.10
2019-06-26T05:08:56.314Z,21.10
2019-06-26T05:11:24.385Z,21.10
2019-06-26T05:13:51.944Z,21.10
2019-06-26T05:16:20.634Z,21.10
2019-06-26T05:18:48.241Z,21.10
2019-06-26T05:21:16.225Z,21.10
2019-06-26T05:23:43.499Z,21.10
2019-06-26T05:26:10.716Z,21.10
2019-06-26T05:28:40.063Z,21.10
2019-06-26T05:31:07.364Z,21.10
2019-06-26T05:33:34.790Z,21.10
2019-06-26T05:36:02.120Z,21.10
2019-06-26T05:38:32.614Z,21.10
2019-06-26T05:41:00.154Z,21.10
2019-06-26T05:43:27.704Z,21.10
2019-06-26T05:45:55.010Z,21.10
2019-06-26T05:48:22.237Z,21.10
2019-06-26T05:50:49.570Z,21.10
2019-06-26T05:53:16.923Z,21.10
2019-06-26T05:57:56.516Z,21.10
2019-06-26T06:00:23.827Z,21.10
2019-06-26T06:02:53.797Z,21.10
2019-06-26T06:05:20.163Z,21.10
2019-06-26T06:07:47.477Z,21.10
2019-06-26T06:10:14.814Z,21.10
2019-06-26T06:12:42.121Z,21.10
2019-06-26T06:15:09.342Z,21.10
2019-06-26T06:17:36.551Z,21.10
2019-06-26T06:20:03.993Z,21.10
2019-06-26T06:22:31.297Z,21.10
2019-06-26T06:24:58.824Z,21.10
2019-06-26T06:27:26.024Z,21.10
2019-06-26T06:29:53.360Z,21.10
2019-06-26T06:32:20.984Z,21.10
2019-06-26T06:34:48.300Z,21.10
2019-06-26T06:37:15.641Z,21.10
2019-06-26T06:40:10.157Z,21.10
2019-06-26T06:44:15.117Z,21.10
2019-06-26T06:46:42.748Z,21.10
2019-06-26T06:49:10.102Z,21.10
2019-06-26T06:51:37.408Z,21.10
2019-06-26T06:54:05.238Z,21.10
2019-06-26T06:56:32.549Z,21.10
2019-06-26T06:58:59.888Z,21.10
2019-06-26T07:01:27.097Z,21.10
2019-06-26T07:03:54.437Z,21.10
2019-06-26T07:06:21.652Z,21.10
2019-06-26T07:08:49.012Z,21.10
2019-06-26T07:11:16.304Z,21.10
2019-06-26T07:13:44.533Z,21.10
2019-06-26T07:16:11.868Z,21.10
2019-06-26T07:18:39.930Z,21.10
2019-06-26T07:21:07.245Z,21.10
2019-06-26T07:23:34.604Z,21.10
2019-06-26T07:26:01.986Z,21.10
2019-06-26T07:28:29.288Z,21.10
2019-06-26T07:30:56.612Z,21.10
2019-06-26T07:33:23.812Z,21.10
2019-06-26T07:35:51.130Z,21.10
2019-06-26T07:38:18.420Z,21.10
2019-06-26T07:40:45.753Z,21.10
2019-06-26T07:43:16.326Z,21.10
2019-06-26T07:45:42.313Z,21.10
2019-06-26T07:48:09.621Z,21.10
2019-06-26T07:50:36.825Z,21.10
2019-06-26T07:53:04.353Z,21.10
2019-06-26T07:55:31.669Z,21.10
2019-06-26T07:57:59.033Z,21.10
2019-06-26T08:00:26.412Z,21.10
2019-06-26T08:02:53.967Z,21.10
2019-06-26T08:05:21.274Z,21.10
2019-06-26T08:07:48.580Z,21.10
2019-06-26T08:10:16.278Z,21.10
2019-06-26T08:12:43.639Z,21.10
2019-06-26T08:15:10.975Z,21.20
2019-06-26T08:17:38.659Z,21.20
2019-06-26T08:20:06.174Z,21.10
2019-06-26T08:22:33.476Z,21.10
2019-06-26T08:25:00.789Z,21.10
2019-06-26T08:27:28.095Z,21.10
2019-06-26T08:29:55.437Z,21.10
2019-06-26T08:32:25.908Z,21.20
2019-06-26T08:34:52.019Z,21.10
2019-06-26T08:37:19.327Z,21.20
2019-06-26T08:39:46.708Z,21.10
2019-06-26T08:42:14.017Z,21.10
2019-06-26T08:44:41.534Z,21.10
2019-06-26T08:47:08.841Z,21.10
2019-06-26T08:49:36.154Z,21.20
2019-06-26T08:52:03.764Z,21.10
2019-06-26T08:54:31.081Z,21.10
2019-06-26T08:56:58.420Z,21.10
2019-06-26T08:59:25.765Z,21.10
2019-06-26T09:01:54.270Z,21.10
2019-06-26T09:04:21.592Z,21.10
2019-06-26T09:06:48.888Z,21.10
2019-06-26T09:09:16.256Z,21.20
2019-06-26T09:11:43.485Z,21.10
2019-06-26T09:14:10.775Z,21.10
2019-06-26T09:16:39.624Z,21.10
2019-06-26T09:19:06.947Z,21.10
2019-06-26T09:21:34.237Z,21.20
2019-06-26T09:24:01.813Z,21.10
2019-06-26T09:26:29.201Z,21.10
2019-06-26T09:28:56.534Z,21.10
2019-06-26T09:31:23.849Z,21.10
2019-06-26T09:33:51.182Z,21.10
2019-06-26T09:36:18.511Z,21.20
2019-06-26T09:38:46.009Z,21.20
2019-06-26T09:41:13.548Z,21.10
2019-06-26T09:43:40.868Z,21.20
2019-06-26T09:46:08.182Z,21.20
2019-06-26T09:48:51.370Z,21.20
2019-06-26T09:51:05.041Z,21.20
2019-06-26T09:53:45.990Z,21.10
2019-06-26T09:56:01.482Z,21.20
2019-06-26T09:58:28.764Z,21.20
2019-06-26T10:00:56.121Z,21.20
2019-06-26T10:03:23.412Z,21.20
2019-06-26T10:05:50.764Z,21.20
2019-06-26T10:08:18.101Z,21.20
2019-06-26T10:10:45.553Z,21.20
2019-06-26T10:13:12.865Z,21.20
2019-06-26T10:15:40.253Z,21.20
2019-06-26T10:18:07.539Z,21.20
2019-06-26T10:20:34.863Z,21.20
2019-06-26T10:23:02.178Z,21.20
2019-06-26T10:25:29.517Z,21.20
2019-06-26T10:27:57.025Z,21.20
2019-06-26T10:30:24.275Z,21.20
2019-06-26T10:32:51.585Z,21.10
2019-06-26T10:35:19.109Z,21.20
2019-06-26T10:37:46.449Z,21.20
2019-06-26T10:40:16.384Z,21.20
2019-06-26T10:42:43.339Z,21.20
2019-06-26T10:45:12.000Z,21.20
2019-06-26T10:47:40.195Z,21.20
2019-06-26T10:50:07.733Z,21.20
2019-06-26T10:52:35.041Z,21.20
2019-06-26T10:55:02.949Z,21.20
2019-06-26T10:57:30.526Z,21.20
2019-06-26T10:59:58.217Z,21.20
2019-06-26T11:02:25.695Z,21.20
2019-06-26T11:04:52.962Z,21.20
2019-06-26T11:07:20.288Z,21.20
2019-06-26T11:09:47.599Z,21.20
2019-06-26T11:12:15.501Z,21.20
2019-06-26T11:14:43.837Z,21.20
2019-06-26T11:17:13.326Z,21.20
2019-06-26T11:19:44.172Z,21.20
2019-06-26T11:22:09.740Z,21.20
2019-06-26T11:27:10.232Z,21.20
2019-06-26T11:29:37.759Z,21.20
2019-06-26T11:32:05.093Z,21.20
2019-06-26T11:34:32.303Z,21.20
2019-06-26T11:37:04.347Z,21.20
2019-06-26T11:39:28.802Z,21.20
2019-06-26T11:41:56.106Z,21.20
2019-06-26T11:44:23.557Z,21.20
2019-06-26T11:46:50.790Z,21.20
2019-06-26T11:49:18.095Z,21.20
2019-06-26T11:51:45.351Z,21.20
2019-06-26T11:54:12.647Z,21.20
2019-06-26T11:56:40.068Z,21.20
2019-06-26T11:59:07.353Z,21.20
2019-06-26T12:01:34.723Z,21.20
2019-06-26T12:04:02.038Z,21.20
2019-06-26T12:06:29.245Z,21.20
2019-06-26T12:08:56.545Z,21.20
2019-06-26T12:11:23.880Z,21.20
2019-06-26T12:13:51.197Z,21.20
2019-06-26T12:16:18.533Z,21.20
2019-06-26T12:18:45.842Z,21.20
2019-06-26T12:21:13.270Z,21.20
2019-06-26T12:23:40.578Z,21.20
2019-06-26T12:26:07.885Z,21.20
2019-06-26T12:28:35.498Z,21.20
2019-06-26T12:31:02.804Z,21.20
2019-06-26T12:33:30.123Z,21.20
2019-06-26T12:35:57.506Z,21.20
2019-06-26T12:38:24.818Z,21.20
2019-06-26T12:40:52.557Z,21.30
2019-06-26T12:43:20.073Z,21.20
2019-06-26T12:45:47.495Z,21.30
2019-06-26T12:48:16.551Z,21.30
2019-06-26T12:50:43.944Z,21.20
2019-06-26T12:53:11.352Z,21.20
2019-06-26T12:55:39.036Z,21.20
2019-06-26T12:58:13.637Z,21.20
2019-06-26T13:00:35.340Z,21.30
2019-06-26T13:03:02.676Z,21.30
2019-06-26T13:05:29.984Z,21.30
2019-06-26T13:07:57.319Z,21.30
2019-06-26T13:10:24.972Z,21.30
2019-06-26T13:12:52.332Z,21.30
2019-06-26T13:15:19.656Z,21.20
2019-06-26T13:17:46.885Z,21.30
2019-06-26T13:20:14.394Z,21.30
2019-06-26T13:22:41.767Z,21.30
2019-06-26T13:25:09.068Z,21.30
2019-06-26T13:27:36.413Z,21.30
2019-06-26T13:30:04.265Z,21.20
2019-06-26T13:32:31.592Z,21.30
2019-06-26T13:34:59.120Z,21.30
2019-06-26T13:37:27.609Z,21.30
2019-06-26T13:39:54.921Z,21.30
2019-06-26T13:42:23.380Z,21.30
2019-06-26T13:44:50.691Z,21.30
2019-06-26T13:47:17.898Z,21.30
2019-06-26T13:49:45.323Z,21.30
2019-06-26T13:52:12.753Z,21.30
2019-06-26T13:54:40.055Z,21.30
2019-06-26T13:57:07.367Z,21.30
2019-06-26T13:59:34.685Z,21.30
2019-06-26T14:02:02.011Z,21.30
2019-06-26T14:04:29.528Z,21.30
2019-06-26T14:06:56.841Z,21.30
2019-06-26T14:09:24.364Z,21.30
2019-06-26T14:11:51.826Z,21.30
2019-06-26T14:14:20.543Z,21.30
2019-06-26T14:16:48.364Z,21.30
2019-06-26T14:19:15.689Z,21.30
2019-06-26T14:21:43.006Z,21.30
2019-06-26T14:24:11.969Z,21.30
2019-06-26T14:26:41.542Z,21.30
2019-06-26T14:29:20.570Z,21.30
2019-06-26T14:31:44.498Z,21.30
2019-06-26T14:34:13.976Z,21.30
2019-06-26T14:36:44.007Z,21.30
2019-06-26T14:39:13.336Z,21.30
2019-06-26T14:41:43.559Z,21.30
2019-06-26T14:44:15.365Z,21.30
2019-06-26T14:46:47.064Z,21.30
2019-06-26T14:49:16.867Z,21.30
2019-06-26T14:51:47.796Z,21.30
2019-06-26T14:54:16.935Z,21.30
2019-06-26T14:56:46.565Z,21.30
2019-06-26T14:59:15.832Z,21.30
2019-06-26T15:01:45.167Z,21.30
2019-06-26T15:04:16.080Z,21.30
2019-06-26T15:06:45.218Z,21.30
2019-06-26T15:09:15.351Z,21.30
2019-06-26T15:11:47.046Z,21.30
2019-06-26T15:14:16.070Z,21.30
2019-06-26T15:16:46.710Z,21.30
2019-06-26T15:19:15.987Z,21.30
2019-06-26T15:21:57.897Z,21.30
2019-06-26T15:24:17.974Z,21.30
2019-06-26T15:26:47.240Z,21.30
2019-06-26T15:29:16.232Z,21.30
2019-06-26T15:31:46.083Z,21.30
2019-06-26T15:34:16.036Z,21.30
2019-06-26T15:36:51.734Z,21.30
2019-06-26T15:39:21.530Z,21.30
2019-06-26T15:41:51.857Z,21.30
2019-06-26T15:44:22.924Z,21.30
2019-06-26T15:46:53.610Z,21.30
2019-06-26T15:49:23.254Z,21.30
2019-06-26T15:51:54.069Z,21.30
2019-06-26T15:54:26.180Z,21.30
2019-06-26T15:56:59.702Z,21.30
2019-06-26T15:59:31.028Z,21.30
2019-06-26T16:02:00.319Z,21.30
2019-06-26T16:04:34.972Z,21.30
2019-06-26T16:07:02.542Z,21.30
2019-06-26T16:09:31.986Z,21.30
2019-06-26T16:12:01.440Z,21.30
2019-06-26T16:14:33.198Z,21.30
2019-06-26T16:17:08.609Z,21.30
2019-06-26T16:19:38.343Z,21.30
2019-06-26T16:22:09.155Z,21.30
2019-06-26T16:24:38.714Z,21.30
2019-06-26T16:27:07.997Z,21.30
2019-06-26T16:29:41.078Z,21.30
2019-06-26T16:32:11.201Z,21.30
2019-06-26T16:34:41.351Z,21.30
2019-06-26T16:37:10.995Z,21.30
2019-06-26T16:39:42.607Z,21.30
2019-06-26T16:42:13.665Z,21.30
2019-06-26T16:44:44.915Z,21.30
2019-06-26T16:47:14.939Z,21.30
2019-06-26T16:49:44.617Z,21.30
2019-06-26T16:52:15.094Z,21.30
2019-06-26T16:54:44.659Z,21.30
2019-06-26T16:57:13.986Z,21.30
2019-06-26T16:59:46.008Z,21.30
2019-06-26T17:02:15.909Z,21.30
2019-06-26T17:04:46.663Z,21.30
2019-06-26T17:07:14.068Z,21.30
2019-06-26T17:09:44.304Z,21.30
2019-06-26T17:12:30.202Z,21.30
2019-06-26T17:14:57.545Z,21.30
2019-06-26T17:17:24.873Z,21.30
2019-06-26T17:19:52.626Z,21.30
2019-06-26T17:22:20.078Z,21.30
2019-06-26T17:24:47.637Z,21.30
2019-06-26T17:27:15.169Z,21.30
2019-06-26T17:29:42.549Z,21.30
2019-06-26T17:32:09.894Z,21.30
2019-06-26T17:34:37.427Z,21.40
2019-06-26T17:37:05.550Z,21.40
2019-06-26T17:39:32.868Z,21.40
2019-06-26T17:42:00.126Z,21.30
2019-06-26T17:44:27.671Z,21.40
2019-06-26T17:46:55.112Z,21.30
2019-06-26T17:49:22.449Z,21.40
2019-06-26T17:51:49.685Z,21.30
2019-06-26T17:54:17.461Z,21.40
2019-06-26T17:56:44.997Z,21.40
2019-06-26T17:59:13.034Z,21.40
2019-06-26T18:01:41.337Z,21.40
2019-06-26T18:04:10.486Z,21.40
2019-06-26T18:06:38.912Z,21.40
2019-06-26T18:09:12.371Z,21.40
2019-06-26T18:11:39.765Z,21.40
2019-06-26T18:14:07.377Z,21.50
2019-06-26T18:16:35.241Z,21.50
2019-06-26T18:19:02.697Z,21.50
2019-06-26T18:21:30.319Z,21.60
2019-06-26T18:23:57.695Z,21.60
2019-06-26T18:26:25.093Z,21.60
2019-06-26T18:28:52.668Z,21.60
2019-06-26T18:31:20.225Z,21.70
2019-06-26T18:33:47.776Z,21.70
2019-06-26T18:36:15.485Z,21.70
2019-06-26T18:38:43.014Z,21.70
2019-06-26T18:41:10.353Z,21.70
2019-06-26T18:43:38.938Z,21.70
2019-06-26T18:46:06.262Z,21.70
2019-06-26T18:48:37.574Z,21.70
2019-06-26T18:51:09.396Z,21.70
2019-06-26T18:53:35.237Z,21.70
2019-06-26T18:56:02.870Z,21.70
2019-06-26T18:58:30.951Z,21.70
2019-06-26T19:00:58.581Z,21.60
2019-06-26T19:03:25.900Z,21.60
2019-06-26T19:05:54.062Z,21.60
2019-06-26T19:08:22.705Z,21.60
2019-06-26T19:10:50.171Z,21.60
2019-06-26T19:13:20.296Z,21.60
2019-06-26T19:15:46.653Z,21.60
2019-06-26T19:18:14.023Z,21.60
2019-06-26T19:20:41.794Z,21.60
2019-06-26T19:23:09.066Z,21.60
2019-06-26T19:25:36.382Z,21.60
2019-06-26T19:28:03.716Z,21.60
2019-06-26T19:30:33.553Z,21.50
2019-06-26T19:33:02.765Z,21.60
2019-06-26T19:35:30.125Z,21.50
2019-06-26T19:37:57.640Z,21.50
2019-06-26T19:40:24.862Z,21.50
2019-06-26T19:42:52.417Z,21.50
2019-06-26T19:45:20.578Z,21.50
2019-06-26T19:47:47.921Z,21.50
2019-06-26T19:50:16.521Z,21.50
2019-06-26T19:52:44.629Z,21.50
2019-06-26T19:55:15.282Z,21.50
2019-06-26T19:57:42.868Z,21.50
2019-06-26T20:00:10.327Z,21.50
2019-06-26T20:02:39.397Z,21.50
2019-06-26T20:05:06.715Z,21.50
2019-06-26T20:07:33.953Z,21.50
2019-06-26T20:10:01.988Z,21.50
2019-06-26T20:12:30.721Z,21.50
2019-06-26T20:14:58.070Z,21.50
2019-06-26T20:17:25.441Z,21.50
2019-06-26T20:19:55.194Z,21.50
2019-06-26T20:22:23.122Z,21.50
2019-06-26T20:24:51.744Z,21.50
2019-06-26T20:27:19.098Z,21.50
2019-06-26T20:29:46.404Z,21.50
2019-06-26T20:32:13.741Z,21.50
2019-06-26T20:34:41.048Z,21.50
2019-06-26T20:37:08.289Z,21.50
2019-06-26T20:39:35.712Z,21.50
2019-06-26T20:42:03.054Z,21.50
2019-06-26T20:44:30.388Z,21.50
2019-06-26T20:46:57.723Z,21.50
2019-06-26T20:49:24.957Z,21.50
2019-06-26T20:51:52.283Z,21.50
2019-06-26T20:54:19.602Z,21.50
2019-06-26T20:56:46.921Z,21.50
2019-06-26T20:59:14.228Z,21.50
2019-06-26T21:01:41.788Z,21.50
2019-06-26T21:04:09.191Z,21.50
2019-06-26T21:06:36.508Z,21.50
2019-06-26T21:09:04.310Z,21.50
2019-06-26T21:11:32.044Z,21.50
2019-06-26T21:13:59.387Z,21.50
2019-06-26T21:16:26.791Z,21.50
2019-06-26T21:18:54.260Z,21.50
2019-06-26T21:21:21.577Z,21.50
2019-06-26T21:23:48.905Z,21.50
2019-06-26T21:26:16.233Z,21.50
2019-06-26T21:28:43.818Z,21.50
2019-06-26T21:31:11.334Z,21.50
2019-06-26T21:33:40.030Z,21.50
2019-06-26T21:36:07.340Z,21.50
2019-06-26T21:38:34.885Z,21.50
2019-06-26T21:41:02.206Z,21.50
2019-06-26T21:43:29.678Z,21.50
2019-06-26T21:45:56.989Z,21.50
2019-06-26T21:48:24.653Z,21.50
2019-06-26T21:50:51.959Z,21.50
2019-06-26T21:53:19.301Z,21.50
2019-06-26T21:56:05.293Z,21.50
2019-06-26T21:58:50.907Z,21.50
2019-06-26T22:01:37.068Z,21.40
2019-06-26T22:04:23.152Z,21.40
2019-06-26T22:06:52.376Z,21.40
2019-06-26T22:09:27.475Z,21.40
2019-06-26T22:11:54.871Z,21.40
2019-06-26T22:14:22.382Z,21.40
2019-06-26T22:16:49.884Z,21.40
2019-06-26T22:19:17.304Z,21.40
2019-06-26T22:21:44.816Z,21.40
2019-06-26T22:24:12.259Z,21.40
2019-06-26T22:26:43.569Z,21.50
2019-06-26T22:29:10.893Z,21.50
2019-06-26T22:31:38.497Z,21.50
2019-06-26T22:34:06.073Z,21.50
2019-06-26T22:36:33.289Z,21.50
2019-06-26T22:39:00.650Z,21.50
2019-06-26T22:41:28.169Z,21.40
2019-06-26T22:43:56.517Z,21.40
2019-06-26T22:46:23.851Z,21.40
2019-06-26T22:48:51.085Z,21.50
2019-06-26T22:51:18.398Z,21.50
2019-06-26T22:53:45.869Z,21.50
2019-06-26T22:56:13.422Z,21.50
2019-06-26T22:58:42.006Z,21.50
2019-06-26T23:01:09.318Z,21.40
2019-06-26T23:03:36.554Z,21.40
2019-06-26T23:06:03.962Z,21.50
2019-06-26T23:08:31.348Z,21.40
2019-06-26T23:10:58.670Z,21.50
2019-06-26T23:13:26.026Z,21.40
2019-06-26T23:15:53.375Z,21.50
2019-06-26T23:18:21.899Z,21.40
2019-06-26T23:20:49.066Z,21.50
2019-06-26T23:23:16.299Z,21.50
2019-06-26T23:25:43.553Z,21.50
2019-06-26T23:28:10.900Z,21.50
2019-06-26T23:30:38.837Z,21.40
2019-06-26T23:33:06.356Z,21.50
2019-06-26T23:35:33.688Z,21.50
2019-06-26T23:38:01.285Z,21.50
2019-06-26T23:40:28.666Z,21.50
2019-06-26T23:42:56.010Z,21.50
2019-06-26T23:45:24.449Z,21.50
2019-06-26T23:47:51.897Z,21.50
2019-06-26T23:50:19.228Z,21.50
2019-06-26T23:52:46.562Z,21.50
2019-06-26T23:55:13.793Z,21.50
2019-06-26T23:57:57.647Z,21.50
